sensor_id;sensor_type;location;lat;lon;timestamp;pressure;altitude;pressure_sealevel;temperature;humidity
56420;BME280;42323;52.170;7.538;2023-04-10T00:01:51;101869.34;;;5.50;nan
56420;BME280;42323;52.170;7.538;2023-04-10T00:04:18;101871.81;;;5.52;nan
56420;BME280;42323;52.170;7.538;2023-04-10T00:06:45;101864.16;;;5.50;nan
56420;BME280;42323;52.170;7.538;2023-04-10T00:09:11;101855.75;;;5.47;nan
56420;BME280;42323;52.170;7.538;2023-04-10T00:11:38;101849.72;;;5.46;nan
56420;BME280;42323;52.170;7.538;2023-04-10T00:14:04;101858.72;;;5.53;nan
56420;BME280;42323;52.170;7.538;2023-04-10T00:16:31;101844.53;;;5.46;nan
56420;BME280;42323;52.170;7.538;2023-04-10T00:18:57;101834.25;;;5.45;nan
56420;BME280;42323;52.170;7.538;2023-04-10T00:21:24;101837.22;;;5.51;nan
56420;BME280;42323;52.170;7.538;2023-04-10T00:23:51;101832.34;;;5.47;nan
56420;BME280;42323;52.170;7.538;2023-04-10T00:26:18;101831.19;;;5.51;nan
56420;BME280;42323;52.170;7.538;2023-04-10T00:28:46;101830.97;;;5.54;nan
56420;BME280;42323;52.170;7.538;2023-04-10T00:31:12;101830.75;;;5.57;nan
56420;BME280;42323;52.170;7.538;2023-04-10T00:33:39;101804.09;;;5.42;nan
56420;BME280;42323;52.170;7.538;2023-04-10T00:36:05;101822.09;;;5.57;nan
56420;BME280;42323;52.170;7.538;2023-04-10T00:38:32;101807.91;;;5.49;nan
56420;BME280;42323;52.170;7.538;2023-04-10T00:40:59;101807.56;;;5.54;nan
56420;BME280;42323;52.170;7.538;2023-04-10T00:43:25;101804.03;;;5.55;nan
56420;BME280;42323;52.170;7.538;2023-04-10T00:45:52;101811.59;;;5.58;nan
56420;BME280;42323;52.170;7.538;2023-04-10T00:48:19;101813.84;;;5.63;nan
56420;BME280;42323;52.170;7.538;2023-04-10T00:50:46;101808.06;;;5.59;nan
56420;BME280;42323;52.170;7.538;2023-04-10T00:53:12;101796.44;;;5.52;nan
56420;BME280;42323;52.170;7.538;2023-04-10T00:55:39;101809.94;;;5.57;nan
56420;BME280;42323;52.170;7.538;2023-04-10T00:58:06;101802.81;;;5.48;nan
56420;BME280;42323;52.170;7.538;2023-04-10T01:00:33;101798.47;;;5.48;nan
56420;BME280;42323;52.170;7.538;2023-04-10T01:02:59;101808.53;;;5.53;nan
56420;BME280;42323;52.170;7.538;2023-04-10T01:05:38;101798.69;;;5.45;nan
56420;BME280;42323;52.170;7.538;2023-04-10T01:11:07;101789.66;;;5.38;nan
56420;BME280;42323;52.170;7.538;2023-04-10T01:16:33;101806.56;;;5.44;nan
56420;BME280;42323;52.170;7.538;2023-04-10T01:21:59;101806.00;;;5.40;nan
56420;BME280;42323;52.170;7.538;2023-04-10T01:27:35;101812.56;;;5.33;nan
56420;BME280;42323;52.170;7.538;2023-04-10T01:30:05;101805.00;;;5.30;nan
56420;BME280;42323;52.170;7.538;2023-04-10T01:32:34;101794.47;;;5.20;nan
56420;BME280;42323;52.170;7.538;2023-04-10T01:35:05;101772.91;;;5.07;nan
56420;BME280;42323;52.170;7.538;2023-04-10T01:37:36;101791.38;;;5.15;nan
56420;BME280;42323;52.170;7.538;2023-04-10T01:40:08;101784.94;;;5.08;nan
56420;BME280;42323;52.170;7.538;2023-04-10T01:42:40;101783.66;;;5.14;nan
56420;BME280;42323;52.170;7.538;2023-04-10T01:45:14;101748.16;;;4.90;nan
56420;BME280;42323;52.170;7.538;2023-04-10T01:47:43;101770.66;;;5.02;nan
56420;BME280;42323;52.170;7.538;2023-04-10T01:50:10;101766.63;;;4.98;nan
56420;BME280;42323;52.170;7.538;2023-04-10T01:52:38;101775.63;;;5.06;nan
56420;BME280;42323;52.170;7.538;2023-04-10T01:55:06;101741.75;;;4.83;nan
56420;BME280;42323;52.170;7.538;2023-04-10T01:57:33;101774.19;;;5.01;nan
56420;BME280;42323;52.170;7.538;2023-04-10T02:00:05;101763.75;;;4.90;nan
56420;BME280;42323;52.170;7.538;2023-04-10T02:02:32;101760.16;;;4.80;nan
56420;BME280;42323;52.170;7.538;2023-04-10T02:04:59;101764.28;;;4.83;nan
56420;BME280;42323;52.170;7.538;2023-04-10T02:07:32;101781.44;;;4.85;nan
56420;BME280;42323;52.170;7.538;2023-04-10T02:10:15;101779.78;;;4.84;nan
56420;BME280;42323;52.170;7.538;2023-04-10T02:15:13;101755.72;;;4.69;nan
56420;BME280;42323;52.170;7.538;2023-04-10T02:17:42;101778.56;;;4.77;nan
56420;BME280;42323;52.170;7.538;2023-04-10T02:20:10;101762.31;;;4.62;nan
56420;BME280;42323;52.170;7.538;2023-04-10T02:22:39;101767.25;;;4.65;nan
56420;BME280;42323;52.170;7.538;2023-04-10T02:25:09;101771.63;;;4.65;nan
56420;BME280;42323;52.170;7.538;2023-04-10T02:27:36;101768.22;;;4.64;nan
56420;BME280;42323;52.170;7.538;2023-04-10T02:30:04;101750.28;;;4.48;nan
56420;BME280;42323;52.170;7.538;2023-04-10T02:32:31;101767.59;;;4.61;nan
56420;BME280;42323;52.170;7.538;2023-04-10T02:34:59;101750.41;;;4.47;nan
56420;BME280;42323;52.170;7.538;2023-04-10T02:37:27;101762.94;;;4.53;nan
56420;BME280;42323;52.170;7.538;2023-04-10T02:39:54;101758.06;;;4.48;nan
56420;BME280;42323;52.170;7.538;2023-04-10T02:42:21;101754.34;;;4.52;nan
56420;BME280;42323;52.170;7.538;2023-04-10T02:44:47;101716.44;;;4.26;nan
56420;BME280;42323;52.170;7.538;2023-04-10T02:47:14;101736.94;;;4.42;nan
56420;BME280;42323;52.170;7.538;2023-04-10T02:49:41;101756.59;;;4.57;nan
56420;BME280;42323;52.170;7.538;2023-04-10T02:52:08;101729.03;;;4.43;nan
56420;BME280;42323;52.170;7.538;2023-04-10T02:54:34;101705.41;;;4.35;nan
56420;BME280;42323;52.170;7.538;2023-04-10T02:57:01;101736.91;;;4.55;nan
56420;BME280;42323;52.170;7.538;2023-04-10T02:59:28;101747.16;;;4.56;nan
56420;BME280;42323;52.170;7.538;2023-04-10T03:01:54;101743.53;;;4.59;nan
56420;BME280;42323;52.170;7.538;2023-04-10T03:04:21;101711.09;;;4.40;nan
56420;BME280;42323;52.170;7.538;2023-04-10T03:06:50;101722.56;;;4.49;nan
56420;BME280;42323;52.170;7.538;2023-04-10T03:09:16;101711.69;;;4.44;nan
56420;BME280;42323;52.170;7.538;2023-04-10T03:11:43;101700.50;;;4.43;nan
56420;BME280;42323;52.170;7.538;2023-04-10T03:14:09;101737.72;;;4.55;nan
56420;BME280;42323;52.170;7.538;2023-04-10T03:16:36;101732.09;;;4.61;nan
56420;BME280;42323;52.170;7.538;2023-04-10T03:19:03;101731.72;;;4.55;nan
56420;BME280;42323;52.170;7.538;2023-04-10T03:21:29;101732.09;;;4.61;nan
56420;BME280;42323;52.170;7.538;2023-04-10T03:23:56;101725.91;;;4.51;nan
56420;BME280;42323;52.170;7.538;2023-04-10T03:26:23;101725.47;;;4.57;nan
56420;BME280;42323;52.170;7.538;2023-04-10T03:28:49;101671.63;;;4.24;nan
56420;BME280;42323;52.170;7.538;2023-04-10T03:31:16;101721.09;;;4.58;nan
56420;BME280;42323;52.170;7.538;2023-04-10T03:33:43;101732.53;;;4.55;nan
56420;BME280;42323;52.170;7.538;2023-04-10T03:36:10;101711.91;;;4.53;nan
56420;BME280;42323;52.170;7.538;2023-04-10T03:38:37;101707.13;;;4.47;nan
56420;BME280;42323;52.170;7.538;2023-04-10T03:41:04;101717.78;;;4.56;nan
56420;BME280;42323;52.170;7.538;2023-04-10T03:43:30;101699.78;;;4.41;nan
56420;BME280;42323;52.170;7.538;2023-04-10T03:45:57;101676.56;;;4.27;nan
56420;BME280;42323;52.170;7.538;2023-04-10T03:48:23;101698.63;;;4.45;nan
56420;BME280;42323;52.170;7.538;2023-04-10T03:50:53;101712.94;;;4.51;nan
56420;BME280;42323;52.170;7.538;2023-04-10T03:53:20;101681.44;;;4.32;nan
56420;BME280;42323;52.170;7.538;2023-04-10T03:55:47;101704.16;;;4.41;nan
56420;BME280;42323;52.170;7.538;2023-04-10T03:58:13;101697.34;;;4.27;nan
56420;BME280;42323;52.170;7.538;2023-04-10T04:00:40;101712.97;;;4.38;nan
56420;BME280;42323;52.170;7.538;2023-04-10T04:03:06;101699.22;;;4.25;nan
56420;BME280;42323;52.170;7.538;2023-04-10T04:05:33;101702.84;;;4.22;nan
56420;BME280;42323;52.170;7.538;2023-04-10T04:08:00;101711.38;;;4.24;nan
56420;BME280;42323;52.170;7.538;2023-04-10T04:10:26;101713.63;;;4.29;nan
56420;BME280;42323;52.170;7.538;2023-04-10T04:12:53;101721.53;;;4.27;nan
56420;BME280;42323;52.170;7.538;2023-04-10T04:15:20;101722.69;;;4.23;nan
56420;BME280;42323;52.170;7.538;2023-04-10T04:17:49;101721.81;;;4.23;nan
56420;BME280;42323;52.170;7.538;2023-04-10T04:20:16;101725.59;;;4.19;nan
56420;BME280;42323;52.170;7.538;2023-04-10T04:22:42;101713.38;;;4.08;nan
56420;BME280;42323;52.170;7.538;2023-04-10T04:25:09;101690.50;;;3.89;nan
56420;BME280;42323;52.170;7.538;2023-04-10T04:27:36;101725.50;;;4.08;nan
56420;BME280;42323;52.170;7.538;2023-04-10T04:30:04;101726.53;;;4.05;nan
56420;BME280;42323;52.170;7.538;2023-04-10T04:32:31;101720.84;;;4.00;nan
56420;BME280;42323;52.170;7.538;2023-04-10T04:34:58;101715.03;;;3.96;nan
56420;BME280;42323;52.170;7.538;2023-04-10T04:37:24;101721.91;;;3.97;nan
56420;BME280;42323;52.170;7.538;2023-04-10T04:39:51;101717.13;;;3.91;nan
56420;BME280;42323;52.170;7.538;2023-04-10T04:42:17;101715.69;;;3.87;nan
56420;BME280;42323;52.170;7.538;2023-04-10T04:44:44;101719.72;;;3.91;nan
56420;BME280;42323;52.170;7.538;2023-04-10T04:47:11;101714.97;;;3.85;nan
56420;BME280;42323;52.170;7.538;2023-04-10T04:49:37;101705.94;;;3.78;nan
56420;BME280;42323;52.170;7.538;2023-04-10T04:52:04;101711.56;;;3.72;nan
56420;BME280;42323;52.170;7.538;2023-04-10T04:54:30;101689.78;;;3.62;nan
56420;BME280;42323;52.170;7.538;2023-04-10T04:56:57;101701.41;;;3.69;nan
56420;BME280;42323;52.170;7.538;2023-04-10T04:59:23;101707.19;;;3.72;nan
56420;BME280;42323;52.170;7.538;2023-04-10T05:01:50;101698.47;;;3.73;nan
56420;BME280;42323;52.170;7.538;2023-04-10T05:04:17;101707.41;;;3.82;nan
56420;BME280;42323;52.170;7.538;2023-04-10T05:06:43;101712.38;;;3.85;nan
56420;BME280;42323;52.170;7.538;2023-04-10T05:09:10;101700.56;;;3.81;nan
56420;BME280;42323;52.170;7.538;2023-04-10T05:11:37;101697.22;;;3.79;nan
56420;BME280;42323;52.170;7.538;2023-04-10T05:14:04;101682.81;;;3.75;nan
56420;BME280;42323;52.170;7.538;2023-04-10T05:16:31;101700.13;;;3.87;nan
56420;BME280;42323;52.170;7.538;2023-04-10T05:18:57;101695.56;;;3.91;nan
56420;BME280;42323;52.170;7.538;2023-04-10T05:21:24;101705.72;;;3.94;nan
56420;BME280;42323;52.170;7.538;2023-04-10T05:23:51;101685.19;;;3.91;nan
56420;BME280;42323;52.170;7.538;2023-04-10T05:26:17;101683.22;;;3.94;nan
56420;BME280;42323;52.170;7.538;2023-04-10T05:28:44;101673.47;;;3.98;nan
56420;BME280;42323;52.170;7.538;2023-04-10T05:31:13;101562.56;;;3.28;nan
56420;BME280;42323;52.170;7.538;2023-04-10T05:33:39;101688.56;;;4.17;nan
56420;BME280;42323;52.170;7.538;2023-04-10T05:36:06;101693.91;;;4.26;nan
56420;BME280;42323;52.170;7.538;2023-04-10T05:38:33;101688.41;;;4.31;nan
56420;BME280;42323;52.170;7.538;2023-04-10T05:40:59;101700.72;;;4.40;nan
56420;BME280;42323;52.170;7.538;2023-04-10T05:43:26;101714.69;;;4.50;nan
56420;BME280;42323;52.170;7.538;2023-04-10T05:45:52;101701.94;;;4.47;nan
56420;BME280;42323;52.170;7.538;2023-04-10T05:48:19;101693.22;;;4.48;nan
56420;BME280;42323;52.170;7.538;2023-04-10T05:50:46;101685.06;;;4.42;nan
56420;BME280;42323;52.170;7.538;2023-04-10T05:53:19;101695.59;;;4.51;nan
56420;BME280;42323;52.170;7.538;2023-04-10T05:55:49;101687.94;;;4.50;nan
56420;BME280;42323;52.170;7.538;2023-04-10T05:58:21;101681.69;;;4.52;nan
56420;BME280;42323;52.170;7.538;2023-04-10T06:00:48;101678.38;;;4.50;nan
56420;BME280;42323;52.170;7.538;2023-04-10T06:03:14;101691.38;;;4.62;nan
56420;BME280;42323;52.170;7.538;2023-04-10T06:05:41;101663.75;;;4.49;nan
56420;BME280;42323;52.170;7.538;2023-04-10T06:08:07;101678.41;;;4.62;nan
56420;BME280;42323;52.170;7.538;2023-04-10T06:10:34;101669.78;;;4.61;nan
56420;BME280;42323;52.170;7.538;2023-04-10T06:13:01;101680.25;;;4.72;nan
56420;BME280;42323;52.170;7.538;2023-04-10T06:15:28;101680.13;;;4.74;nan
56420;BME280;42323;52.170;7.538;2023-04-10T06:17:54;101686.31;;;4.84;nan
56420;BME280;42323;52.170;7.538;2023-04-10T06:20:21;101670.50;;;4.87;nan
56420;BME280;42323;52.170;7.538;2023-04-10T06:22:48;101656.81;;;4.85;nan
56420;BME280;42323;52.170;7.538;2023-04-10T06:25:14;101671.84;;;5.04;nan
56420;BME280;42323;52.170;7.538;2023-04-10T06:27:41;101568.09;;;4.56;nan
56420;BME280;42323;52.170;7.538;2023-04-10T06:30:08;101641.88;;;5.11;nan
56420;BME280;42323;52.170;7.538;2023-04-10T06:32:35;101640.00;;;5.24;nan
56420;BME280;42323;52.170;7.538;2023-04-10T06:35:01;101653.25;;;5.44;nan
56420;BME280;42323;52.170;7.538;2023-04-10T06:37:28;101656.56;;;5.68;nan
56420;BME280;42323;52.170;7.538;2023-04-10T06:40:09;101642.84;;;5.77;nan
56420;BME280;42323;52.170;7.538;2023-04-10T06:42:36;101631.06;;;5.96;nan
56420;BME280;42323;52.170;7.538;2023-04-10T06:45:03;101646.81;;;6.26;nan
56420;BME280;42323;52.170;7.538;2023-04-10T06:47:30;101639.94;;;6.37;nan
56420;BME280;42323;52.170;7.538;2023-04-10T06:49:57;101632.41;;;6.54;nan
56420;BME280;42323;52.170;7.538;2023-04-10T06:52:24;101597.34;;;6.59;nan
56420;BME280;42323;52.170;7.538;2023-04-10T06:54:51;101601.03;;;6.77;nan
56420;BME280;42323;52.170;7.538;2023-04-10T06:57:17;101621.25;;;7.06;nan
56420;BME280;42323;52.170;7.538;2023-04-10T06:59:46;101629.34;;;7.33;nan
56420;BME280;42323;52.170;7.538;2023-04-10T07:02:13;101607.84;;;7.41;nan
56420;BME280;42323;52.170;7.538;2023-04-10T07:04:41;101593.88;;;7.51;nan
56420;BME280;42323;52.170;7.538;2023-04-10T07:07:07;101606.88;;;7.82;nan
56420;BME280;42323;52.170;7.538;2023-04-10T07:09:38;101606.66;;;8.04;nan
56420;BME280;42323;52.170;7.538;2023-04-10T07:12:05;101620.41;;;8.36;nan
56420;BME280;42323;52.170;7.538;2023-04-10T07:14:32;101598.59;;;8.56;nan
56420;BME280;42323;52.170;7.538;2023-04-10T07:17:00;101611.88;;;8.92;nan
56420;BME280;42323;52.170;7.538;2023-04-10T07:19:26;101593.09;;;9.16;nan
56420;BME280;42323;52.170;7.538;2023-04-10T07:21:53;101586.91;;;9.44;nan
56420;BME280;42323;52.170;7.538;2023-04-10T07:24:20;101603.69;;;9.79;nan
56420;BME280;42323;52.170;7.538;2023-04-10T07:26:46;101597.38;;;9.99;nan
56420;BME280;42323;52.170;7.538;2023-04-10T07:29:13;101593.63;;;10.20;nan
56420;BME280;42323;52.170;7.538;2023-04-10T07:31:39;101596.06;;;10.31;nan
56420;BME280;42323;52.170;7.538;2023-04-10T07:34:06;101574.28;;;10.30;nan
56420;BME280;42323;52.170;7.538;2023-04-10T07:36:33;101596.44;;;10.54;nan
56420;BME280;42323;52.170;7.538;2023-04-10T07:38:59;101585.50;;;10.59;nan
56420;BME280;42323;52.170;7.538;2023-04-10T07:41:26;101564.16;;;10.53;nan
56420;BME280;42323;52.170;7.538;2023-04-10T07:43:53;101580.97;;;10.69;nan
56420;BME280;42323;52.170;7.538;2023-04-10T07:46:19;101568.31;;;10.64;nan
56420;BME280;42323;52.170;7.538;2023-04-10T07:48:46;101570.72;;;10.75;nan
56420;BME280;42323;52.170;7.538;2023-04-10T07:51:13;101560.72;;;10.79;nan
56420;BME280;42323;52.170;7.538;2023-04-10T07:53:39;101567.56;;;10.98;nan
56420;BME280;42323;52.170;7.538;2023-04-10T07:56:06;101554.50;;;11.06;nan
56420;BME280;42323;52.170;7.538;2023-04-10T07:58:33;101549.13;;;11.16;nan
56420;BME280;42323;52.170;7.538;2023-04-10T08:01:00;101538.97;;;11.21;nan
56420;BME280;42323;52.170;7.538;2023-04-10T08:03:27;101543.63;;;11.35;nan
56420;BME280;42323;52.170;7.538;2023-04-10T08:05:53;101532.50;;;11.41;nan
56420;BME280;42323;52.170;7.538;2023-04-10T08:08:20;101530.88;;;11.48;nan
56420;BME280;42323;52.170;7.538;2023-04-10T08:10:46;101539.94;;;11.54;nan
56420;BME280;42323;52.170;7.538;2023-04-10T08:13:14;101535.31;;;11.56;nan
56420;BME280;42323;52.170;7.538;2023-04-10T08:15:41;101519.44;;;11.58;nan
56420;BME280;42323;52.170;7.538;2023-04-10T08:18:07;101518.28;;;11.60;nan
56420;BME280;42323;52.170;7.538;2023-04-10T08:20:34;101506.66;;;11.63;nan
56420;BME280;42323;52.170;7.538;2023-04-10T08:23:02;101514.53;;;11.71;nan
56420;BME280;42323;52.170;7.538;2023-04-10T08:25:44;101511.59;;;11.82;nan
56420;BME280;42323;52.170;7.538;2023-04-10T08:28:11;101489.31;;;11.86;nan
56420;BME280;42323;52.170;7.538;2023-04-10T08:30:38;101493.91;;;11.92;nan
56420;BME280;42323;52.170;7.538;2023-04-10T08:33:04;101487.19;;;11.90;nan
56420;BME280;42323;52.170;7.538;2023-04-10T08:35:31;101481.75;;;11.99;nan
56420;BME280;42323;52.170;7.538;2023-04-10T08:37:57;101471.09;;;12.01;nan
56420;BME280;42323;52.170;7.538;2023-04-10T08:40:38;101481.59;;;12.17;nan
